createdAt,value
2023-01-15T00:02:18.106Z,7.30
2023-01-15T00:04:44.604Z,7.29
2023-01-15T00:07:11.019Z,7.28
2023-01-15T00:09:37.455Z,7.30
2023-01-15T00:12:04.221Z,7.29
2023-01-15T00:14:30.631Z,7.29
2023-01-15T00:16:57.020Z,7.32
2023-01-15T00:19:23.435Z,7.32
2023-01-15T00:21:49.928Z,7.30
2023-01-15T00:24:35.117Z,7.29
2023-01-15T00:27:19.920Z,7.30
2023-01-15T00:29:46.461Z,7.29
2023-01-15T00:32:12.827Z,7.29
2023-01-15T00:34:39.271Z,7.30
2023-01-15T00:37:05.823Z,7.28
2023-01-15T00:39:33.385Z,7.31
2023-01-15T00:41:59.816Z,7.29
2023-01-15T00:44:26.220Z,7.29
2023-01-15T00:46:52.668Z,7.32
2023-01-15T00:49:19.171Z,7.31
2023-01-15T00:51:45.577Z,7.31
2023-01-15T00:54:11.965Z,7.31
2023-01-15T00:56:38.342Z,7.30
2023-01-15T00:59:05.716Z,7.29
2023-01-15T01:01:32.863Z,7.28
2023-01-15T01:03:59.700Z,7.28
2023-01-15T01:06:26.856Z,7.30
2023-01-15T01:08:53.661Z,7.28
2023-01-15T01:11:23.946Z,7.26
2023-01-15T01:13:50.405Z,7.26
2023-01-15T01:16:35.905Z,7.26
2023-01-15T01:19:06.103Z,7.24
2023-01-15T01:21:32.789Z,7.23
2023-01-15T01:24:00.352Z,7.19
2023-01-15T01:26:28.073Z,7.16
2023-01-15T01:28:55.224Z,7.20
2023-01-15T01:31:22.527Z,7.20
2023-01-15T01:33:50.624Z,7.18
2023-01-15T01:36:17.368Z,7.19
2023-01-15T01:38:43.867Z,7.17
2023-01-15T01:41:10.236Z,7.16
2023-01-15T01:43:53.730Z,7.16
2023-01-15T01:46:20.161Z,7.14
2023-01-15T01:48:49.097Z,7.14
2023-01-15T01:51:15.985Z,7.12
2023-01-15T01:53:42.530Z,7.11
2023-01-15T01:56:11.590Z,7.10
2023-01-15T01:58:39.429Z,7.10
2023-01-15T02:01:06.386Z,7.11
2023-01-15T02:03:38.146Z,7.08
2023-01-15T02:06:08.693Z,7.07
2023-01-15T02:08:35.348Z,7.06
2023-01-15T02:11:02.002Z,7.06
2023-01-15T02:13:47.011Z,7.04
2023-01-15T02:16:34.852Z,7.04
2023-01-15T02:19:16.289Z,7.04
2023-01-15T02:21:56.243Z,7.03
2023-01-15T02:25:05.935Z,7.01
2023-01-15T02:27:33.137Z,7.02
2023-01-15T02:30:27.210Z,7.00
2023-01-15T02:33:01.102Z,6.98
2023-01-15T02:35:34.888Z,6.97
2023-01-15T02:38:06.971Z,6.96
2023-01-15T02:40:36.400Z,6.97
2023-01-15T02:43:05.802Z,6.95
2023-01-15T02:45:39.507Z,6.93
2023-01-15T02:48:11.383Z,6.94
2023-01-15T02:50:43.788Z,6.93
2023-01-15T02:53:14.751Z,6.90
2023-01-15T02:55:44.740Z,6.90
2023-01-15T02:58:16.285Z,6.91
2023-01-15T03:00:46.570Z,6.89
2023-01-15T03:03:28.098Z,6.89
2023-01-15T03:06:02.150Z,6.88
2023-01-15T03:08:28.999Z,6.84
2023-01-15T03:11:02.586Z,6.86
2023-01-15T03:13:43.314Z,6.86
2023-01-15T03:16:33.258Z,6.89
2023-01-15T03:19:05.551Z,6.86
2023-01-15T03:21:41.560Z,6.85
2023-01-15T03:24:11.404Z,6.84
2023-01-15T03:26:37.986Z,6.85
2023-01-15T03:29:07.471Z,6.86
2023-01-15T03:31:35.266Z,6.85
2023-01-15T03:34:02.509Z,6.84
2023-01-15T03:36:28.922Z,6.82
2023-01-15T03:38:55.483Z,6.82
2023-01-15T03:41:34.317Z,6.83
2023-01-15T03:44:30.023Z,6.84
2023-01-15T03:47:21.058Z,6.82
2023-01-15T03:50:04.869Z,6.79
2023-01-15T03:52:47.971Z,6.74
2023-01-15T03:55:19.226Z,6.76
2023-01-15T03:57:58.865Z,6.75
2023-01-15T04:00:36.068Z,6.74
2023-01-15T04:03:07.125Z,6.76
2023-01-15T04:05:35.587Z,6.73
2023-01-15T04:08:03.293Z,6.72
2023-01-15T04:10:29.640Z,6.70
2023-01-15T04:12:56.059Z,6.72
2023-01-15T04:15:22.552Z,6.72
2023-01-15T04:17:48.901Z,6.73
2023-01-15T04:20:15.476Z,6.73
2023-01-15T04:22:42.022Z,6.74
2023-01-15T04:25:09.028Z,6.72
2023-01-15T04:27:35.527Z,6.71
2023-01-15T04:30:02.160Z,6.72
2023-01-15T04:32:28.531Z,6.73
2023-01-15T04:34:55.031Z,6.72
2023-01-15T04:37:21.451Z,6.70
2023-01-15T04:39:47.882Z,6.70
2023-01-15T04:42:33.638Z,6.67
2023-01-15T04:44:59.998Z,6.68
2023-01-15T04:47:26.380Z,6.66
2023-01-15T04:49:52.765Z,6.64
2023-01-15T04:52:19.464Z,6.65
2023-01-15T04:54:45.951Z,6.62
2023-01-15T04:57:12.464Z,6.60
2023-01-15T04:59:38.850Z,6.60
2023-01-15T05:02:06.790Z,6.61
2023-01-15T05:04:34.320Z,6.61
2023-01-15T05:07:02.805Z,6.60
2023-01-15T05:09:29.409Z,6.61
2023-01-15T05:11:55.843Z,6.59
2023-01-15T05:14:22.333Z,6.57
2023-01-15T05:16:48.757Z,6.57
2023-01-15T05:19:15.105Z,6.57
2023-01-15T05:21:44.053Z,6.60
2023-01-15T05:24:14.646Z,6.60
2023-01-15T05:26:41.487Z,6.57
2023-01-15T05:29:08.149Z,6.57
2023-01-15T05:31:34.681Z,6.56
2023-01-15T05:34:01.469Z,6.56
2023-01-15T05:36:30.907Z,6.54
2023-01-15T05:39:01.394Z,6.54
2023-01-15T05:41:47.113Z,6.52
2023-01-15T05:44:14.153Z,6.50
2023-01-15T05:46:42.467Z,6.49
2023-01-15T05:49:12.082Z,6.50
2023-01-15T05:51:39.815Z,6.46
2023-01-15T05:54:08.787Z,6.45
2023-01-15T05:56:36.993Z,6.44
2023-01-15T05:59:03.808Z,6.40
2023-01-15T06:01:30.597Z,6.40
2023-01-15T06:04:01.716Z,6.40
2023-01-15T06:06:28.770Z,6.37
2023-01-15T06:08:55.364Z,6.35
2023-01-15T06:11:21.918Z,6.37
2023-01-15T06:13:48.481Z,6.38
2023-01-15T06:16:15.311Z,6.37
2023-01-15T06:18:42.659Z,6.38
2023-01-15T06:21:13.165Z,6.33
2023-01-15T06:23:40.659Z,6.34
2023-01-15T06:26:11.323Z,6.32
2023-01-15T06:28:37.794Z,6.28
2023-01-15T06:31:09.260Z,6.22
2023-01-15T06:33:36.021Z,6.16
2023-01-15T06:36:04.423Z,6.12
2023-01-15T06:38:31.481Z,6.08
2023-01-15T06:41:02.524Z,6.00
2023-01-15T06:43:47.742Z,5.97
2023-01-15T06:46:34.518Z,5.95
2023-01-15T06:49:00.964Z,5.95
2023-01-15T06:51:29.118Z,5.95
2023-01-15T06:53:56.584Z,5.95
2023-01-15T06:56:22.991Z,5.94
2023-01-15T06:58:50.021Z,5.91
2023-01-15T07:01:16.485Z,5.97
2023-01-15T07:03:42.944Z,5.96
2023-01-15T07:06:11.721Z,5.93
2023-01-15T07:08:38.939Z,5.95
2023-01-15T07:11:07.315Z,5.91
2023-01-15T07:13:34.387Z,5.93
2023-01-15T07:16:01.851Z,5.96
2023-01-15T07:18:30.159Z,5.90
2023-01-15T07:20:57.648Z,5.87
2023-01-15T07:23:26.083Z,5.85
2023-01-15T07:25:53.907Z,5.81
2023-01-15T07:28:21.488Z,5.81
2023-01-15T07:30:47.958Z,5.79
2023-01-15T07:33:14.834Z,5.78
2023-01-15T07:35:41.267Z,5.76
2023-01-15T07:38:07.743Z,5.75
2023-01-15T07:40:34.067Z,5.73
2023-01-15T07:43:18.821Z,5.73
2023-01-15T07:46:03.551Z,5.73
2023-01-15T07:48:49.137Z,5.71
2023-01-15T07:51:15.584Z,5.69
2023-01-15T07:53:42.008Z,5.70
2023-01-15T07:56:09.061Z,5.69
2023-01-15T07:58:35.475Z,5.68
2023-01-15T08:01:02.145Z,5.67
2023-01-15T08:03:29.190Z,5.67
2023-01-15T08:05:56.915Z,5.66
2023-01-15T08:08:23.519Z,5.68
2023-01-15T08:11:08.446Z,5.67
2023-01-15T08:13:53.257Z,5.70
2023-01-15T08:16:20.196Z,5.69
2023-01-15T08:18:46.799Z,5.71
2023-01-15T08:21:15.484Z,5.76
2023-01-15T08:23:43.339Z,5.71
2023-01-15T08:26:09.721Z,5.69
2023-01-15T08:28:36.056Z,5.68
2023-01-15T08:31:02.394Z,5.66
2023-01-15T08:33:28.733Z,5.69
2023-01-15T08:35:57.112Z,5.70
2023-01-15T08:38:23.570Z,5.68
2023-01-15T08:40:59.880Z,5.68
2023-01-15T08:43:33.261Z,5.70
2023-01-15T08:46:01.179Z,5.75
2023-01-15T08:48:29.948Z,5.80
2023-01-15T08:50:56.521Z,5.81
2023-01-15T08:53:24.279Z,5.85
2023-01-15T08:55:51.087Z,5.86
2023-01-15T08:58:17.611Z,5.87
2023-01-15T09:00:44.019Z,5.88
2023-01-15T09:03:10.367Z,5.90
2023-01-15T09:05:37.886Z,5.91
2023-01-15T09:08:05.638Z,5.91
2023-01-15T09:10:32.148Z,5.93
2023-01-15T09:13:00.360Z,5.93
2023-01-15T09:15:28.566Z,5.95
2023-01-15T09:17:55.741Z,5.93
2023-01-15T09:20:22.418Z,5.94
2023-01-15T09:22:49.164Z,5.99
2023-01-15T09:25:16.704Z,6.01
2023-01-15T09:27:43.306Z,6.03
2023-01-15T09:30:30.263Z,6.08
2023-01-15T09:32:56.785Z,6.10
2023-01-15T09:35:23.408Z,6.12
2023-01-15T09:37:53.477Z,6.17
2023-01-15T09:40:57.206Z,6.19
2023-01-15T09:43:50.482Z,6.20
2023-01-15T09:46:23.651Z,6.22
2023-01-15T09:49:35.458Z,6.22
2023-01-15T09:52:25.252Z,6.26
2023-01-15T09:55:16.191Z,6.24
2023-01-15T09:57:46.219Z,6.23
2023-01-15T10:00:21.850Z,6.25
2023-01-15T10:03:12.941Z,6.24
2023-01-15T10:05:57.743Z,6.25
2023-01-15T10:08:29.127Z,6.27
2023-01-15T10:11:02.599Z,6.30
2023-01-15T10:13:37.687Z,6.36
2023-01-15T10:16:04.667Z,6.42
2023-01-15T10:18:31.364Z,6.48
2023-01-15T10:21:16.074Z,6.52
2023-01-15T10:24:07.323Z,6.62
2023-01-15T10:26:40.580Z,6.69
2023-01-15T10:29:24.521Z,6.71
2023-01-15T10:31:53.379Z,6.77
2023-01-15T10:34:56.296Z,6.79
2023-01-15T10:37:42.097Z,6.81
2023-01-15T10:40:18.764Z,6.80
2023-01-15T10:43:33.455Z,6.75
2023-01-15T10:46:01.873Z,6.69
2023-01-15T10:48:39.590Z,6.67
2023-01-15T10:51:26.877Z,6.66
2023-01-15T10:54:10.303Z,6.70
2023-01-15T10:56:52.009Z,6.73
2023-01-15T10:59:27.876Z,6.75
2023-01-15T11:01:55.805Z,6.74
2023-01-15T11:04:23.037Z,6.73
2023-01-15T11:06:49.530Z,6.74
2023-01-15T11:09:20.433Z,6.76
2023-01-15T11:12:00.974Z,6.78
2023-01-15T11:15:21.820Z,6.79
2023-01-15T11:18:07.833Z,6.78
2023-01-15T11:20:44.310Z,6.77
2023-01-15T11:23:14.464Z,6.79
2023-01-15T11:25:50.596Z,6.78
2023-01-15T11:28:19.405Z,6.78
2023-01-15T11:30:54.672Z,6.76
2023-01-15T11:33:27.883Z,6.77
2023-01-15T11:35:59.730Z,6.77
2023-01-15T11:38:29.244Z,6.76
2023-01-15T11:40:59.678Z,6.78
2023-01-15T11:43:49.307Z,6.78
2023-01-15T11:46:48.962Z,6.78
2023-01-15T11:49:39.362Z,6.74
2023-01-15T11:52:11.542Z,6.70
2023-01-15T11:54:42.348Z,6.69
2023-01-15T11:57:10.839Z,6.72
2023-01-15T11:59:37.773Z,6.69
2023-01-15T12:02:17.058Z,6.70
2023-01-15T12:04:58.225Z,6.70
2023-01-15T12:07:26.648Z,6.67
2023-01-15T12:10:18.208Z,6.67
2023-01-15T12:13:04.988Z,6.68
2023-01-15T12:15:51.443Z,6.67
2023-01-15T12:18:45.421Z,6.67
2023-01-15T12:21:40.245Z,6.62
2023-01-15T12:24:18.193Z,6.56
2023-01-15T12:27:12.585Z,6.54
2023-01-15T12:29:48.939Z,6.49
2023-01-15T12:32:22.567Z,6.39
2023-01-15T12:34:57.987Z,6.32
2023-01-15T12:37:28.884Z,6.27
2023-01-15T12:40:07.386Z,6.22
2023-01-15T12:42:55.376Z,6.17
2023-01-15T12:45:27.084Z,6.15
2023-01-15T12:48:12.184Z,6.15
2023-01-15T12:50:46.544Z,6.17
2023-01-15T12:53:22.017Z,6.13
2023-01-15T12:55:56.187Z,6.11
2023-01-15T12:58:26.477Z,6.08
2023-01-15T13:01:04.228Z,6.04
2023-01-15T13:03:48.047Z,6.06
2023-01-15T13:06:16.935Z,6.03
2023-01-15T13:09:04.108Z,6.06
2023-01-15T13:11:30.605Z,6.05
2023-01-15T13:13:59.915Z,6.05
2023-01-15T13:16:47.636Z,6.07
2023-01-15T13:19:46.477Z,6.10
2023-01-15T13:22:22.093Z,6.11
2023-01-15T13:24:51.374Z,6.15
2023-01-15T13:27:24.300Z,6.15
2023-01-15T13:29:57.966Z,6.16
2023-01-15T13:32:29.528Z,6.17
2023-01-15T13:35:11.057Z,6.19
2023-01-15T13:37:44.481Z,6.18
2023-01-15T13:40:32.863Z,6.16
2023-01-15T13:42:59.521Z,6.16
2023-01-15T13:45:42.359Z,6.19
2023-01-15T13:48:16.146Z,6.22
2023-01-15T13:50:54.062Z,6.23
2023-01-15T13:53:34.430Z,6.24
2023-01-15T13:56:07.770Z,6.28
2023-01-15T13:58:37.987Z,6.30
2023-01-15T14:01:22.399Z,6.29
2023-01-15T14:04:06.987Z,6.24
2023-01-15T14:06:41.632Z,6.24
2023-01-15T14:09:31.933Z,6.24
2023-01-15T14:12:17.500Z,6.24
2023-01-15T14:14:46.829Z,6.23
2023-01-15T14:17:48.927Z,6.22
2023-01-15T14:20:47.951Z,6.19
2023-01-15T14:23:26.045Z,6.19
2023-01-15T14:26:17.209Z,6.18
2023-01-15T14:29:22.360Z,6.19
2023-01-15T14:32:15.063Z,6.20
2023-01-15T14:34:41.915Z,6.17
2023-01-15T14:37:17.301Z,6.15
2023-01-15T14:39:48.796Z,6.07
2023-01-15T14:42:51.473Z,6.01
2023-01-15T14:45:30.688Z,6.01
2023-01-15T14:48:02.449Z,6.03
2023-01-15T14:50:42.239Z,6.06
2023-01-15T14:53:11.777Z,6.05
2023-01-15T14:55:46.343Z,6.04
2023-01-15T14:58:34.299Z,6.06
2023-01-15T15:01:17.244Z,6.08
2023-01-15T15:03:51.348Z,6.12
2023-01-15T15:06:18.445Z,6.13
2023-01-15T15:08:46.083Z,6.13
2023-01-15T15:11:42.777Z,6.15
2023-01-15T15:14:13.819Z,6.14
2023-01-15T15:16:48.227Z,6.18
2023-01-15T15:19:27.553Z,6.18
2023-01-15T15:21:57.569Z,6.18
2023-01-15T15:24:35.072Z,6.20
2023-01-15T15:27:22.076Z,6.19
2023-01-15T15:29:48.821Z,6.17
2023-01-15T15:32:24.907Z,6.14
2023-01-15T15:34:53.627Z,6.13
2023-01-15T15:37:24.808Z,6.14
2023-01-15T15:39:57.482Z,6.17
2023-01-15T15:42:50.893Z,6.16
2023-01-15T15:45:38.846Z,6.19
2023-01-15T15:48:32.846Z,6.17
2023-01-15T15:50:59.944Z,6.17
2023-01-15T15:53:26.459Z,6.16
2023-01-15T15:55:54.937Z,6.16
2023-01-15T15:58:36.390Z,6.16
2023-01-15T16:01:03.389Z,6.14
2023-01-15T16:03:33.178Z,6.11
2023-01-15T16:06:03.166Z,6.09
2023-01-15T16:08:31.520Z,6.05
2023-01-15T16:11:01.201Z,6.03
2023-01-15T16:13:47.475Z,6.01
2023-01-15T16:16:16.652Z,5.99
2023-01-15T16:18:45.572Z,5.98
2023-01-15T16:21:22.245Z,5.98
2023-01-15T16:24:02.658Z,5.97
2023-01-15T16:26:37.789Z,5.91
2023-01-15T16:29:06.900Z,5.87
2023-01-15T16:31:35.577Z,5.86
2023-01-15T16:34:03.063Z,5.86
2023-01-15T16:36:39.236Z,5.77
2023-01-15T16:39:07.099Z,5.36
2023-01-15T16:41:42.135Z,5.03
2023-01-15T16:44:25.587Z,4.78
2023-01-15T16:47:00.316Z,4.62
2023-01-15T16:49:30.160Z,4.58
2023-01-15T16:51:58.729Z,4.57
2023-01-15T16:54:30.833Z,4.63
2023-01-15T16:57:02.191Z,4.68
2023-01-15T16:59:28.546Z,4.80
2023-01-15T17:01:57.261Z,4.85
2023-01-15T17:04:42.374Z,4.83
2023-01-15T17:07:18.295Z,4.97
2023-01-15T17:09:49.716Z,5.00
2023-01-15T17:12:34.263Z,5.01
2023-01-15T17:15:15.917Z,5.08
2023-01-15T17:17:43.918Z,5.15
2023-01-15T17:20:12.653Z,5.18
2023-01-15T17:22:42.066Z,5.21
2023-01-15T17:25:23.977Z,5.25
2023-01-15T17:27:50.401Z,5.24
2023-01-15T17:30:17.572Z,5.24
2023-01-15T17:32:43.952Z,5.26
2023-01-15T17:35:28.868Z,5.24
2023-01-15T17:37:55.259Z,5.24
2023-01-15T17:40:21.731Z,5.25
2023-01-15T17:42:48.554Z,5.28
2023-01-15T17:45:26.819Z,5.28
2023-01-15T17:47:53.380Z,5.27
2023-01-15T17:50:20.061Z,5.29
2023-01-15T17:52:46.718Z,5.31
2023-01-15T17:55:34.531Z,5.31
2023-01-15T17:58:19.423Z,5.30
2023-01-15T18:01:05.360Z,5.25
2023-01-15T18:03:51.355Z,5.25
2023-01-15T18:06:19.928Z,5.23
2023-01-15T18:08:52.309Z,5.22
2023-01-15T18:11:19.079Z,5.23
2023-01-15T18:13:45.447Z,5.24
2023-01-15T18:16:11.998Z,5.24
2023-01-15T18:18:38.702Z,5.23
2023-01-15T18:21:05.251Z,5.23
2023-01-15T18:23:34.363Z,5.20
2023-01-15T18:26:04.527Z,5.22
2023-01-15T18:28:32.013Z,5.18
2023-01-15T18:30:58.409Z,5.20
2023-01-15T18:33:24.883Z,5.17
2023-01-15T18:35:51.319Z,5.13
2023-01-15T18:38:17.693Z,5.12
2023-01-15T18:40:44.036Z,5.14
2023-01-15T18:43:29.119Z,5.13
2023-01-15T18:46:33.844Z,5.16
2023-01-15T18:49:00.267Z,5.16
2023-01-15T18:51:26.696Z,5.14
2023-01-15T18:53:53.072Z,5.16
2023-01-15T18:56:38.889Z,5.14
2023-01-15T18:59:07.759Z,5.08
2023-01-15T19:01:35.062Z,5.08
2023-01-15T19:04:01.974Z,5.11
2023-01-15T19:06:28.438Z,5.13
2023-01-15T19:08:54.750Z,5.12
2023-01-15T19:11:21.116Z,5.09
2023-01-15T19:14:07.442Z,5.08
2023-01-15T19:16:52.293Z,5.06
2023-01-15T19:19:18.663Z,5.05
2023-01-15T19:21:46.643Z,5.05
2023-01-15T19:24:13.873Z,5.03
2023-01-15T19:26:40.327Z,5.03
2023-01-15T19:29:06.958Z,5.03
2023-01-15T19:31:37.217Z,5.02
2023-01-15T19:34:32.179Z,5.00
2023-01-15T19:36:54.538Z,4.98
2023-01-15T19:39:21.235Z,4.99
2023-01-15T19:42:05.947Z,4.95
2023-01-15T19:44:51.039Z,4.95
2023-01-15T19:47:56.327Z,4.97
2023-01-15T19:50:30.129Z,4.95
2023-01-15T19:52:56.591Z,4.93
2023-01-15T19:55:24.676Z,4.91
2023-01-15T19:57:59.543Z,4.87
2023-01-15T20:00:27.073Z,4.87
2023-01-15T20:02:54.939Z,4.88
2023-01-15T20:05:21.459Z,4.91
2023-01-15T20:07:47.864Z,4.90
2023-01-15T20:10:17.168Z,4.90
2023-01-15T20:13:02.144Z,4.88
2023-01-15T20:15:29.330Z,4.85
2023-01-15T20:17:56.993Z,4.87
2023-01-15T20:20:24.544Z,4.83
2023-01-15T20:22:51.165Z,4.84
2023-01-15T20:25:17.794Z,4.88
2023-01-15T20:27:44.322Z,4.89
2023-01-15T20:30:15.143Z,4.87
2023-01-15T20:32:43.869Z,4.86
2023-01-15T20:35:13.463Z,4.85
2023-01-15T20:37:39.971Z,4.83
2023-01-15T20:40:07.047Z,4.83
2023-01-15T20:42:53.036Z,4.83
2023-01-15T20:45:19.469Z,4.88
2023-01-15T20:48:04.602Z,4.86
2023-01-15T20:50:33.934Z,4.91
2023-01-15T20:53:00.827Z,4.95
2023-01-15T20:55:38.879Z,4.96
2023-01-15T20:58:12.239Z,4.97
2023-01-15T21:00:38.674Z,4.91
2023-01-15T21:03:05.966Z,4.92
2023-01-15T21:05:32.357Z,4.90
2023-01-15T21:07:58.920Z,4.92
2023-01-15T21:10:25.561Z,4.93
2023-01-15T21:12:53.222Z,4.93
2023-01-15T21:15:20.213Z,4.91
2023-01-15T21:17:47.254Z,4.95
2023-01-15T21:20:15.213Z,4.95
2023-01-15T21:22:42.151Z,4.97
2023-01-15T21:25:13.286Z,4.97
2023-01-15T21:27:39.840Z,4.98
2023-01-15T21:30:07.734Z,5.00
2023-01-15T21:32:34.223Z,5.00
2023-01-15T21:35:00.588Z,5.03
2023-01-15T21:37:27.102Z,5.04
2023-01-15T21:39:53.502Z,5.06
2023-01-15T21:42:40.833Z,5.08
2023-01-15T21:45:08.251Z,5.10
2023-01-15T21:47:36.825Z,5.10
2023-01-15T21:50:05.282Z,5.12
2023-01-15T21:52:33.599Z,5.12
2023-01-15T21:55:00.488Z,5.12
2023-01-15T21:57:29.347Z,5.14
2023-01-15T21:59:56.002Z,5.11
2023-01-15T22:02:23.589Z,5.09
2023-01-15T22:04:50.418Z,5.11
2023-01-15T22:07:18.226Z,5.12
2023-01-15T22:09:45.045Z,5.12
2023-01-15T22:12:12.883Z,5.15
2023-01-15T22:14:39.449Z,5.15
2023-01-15T22:17:06.447Z,5.15
2023-01-15T22:19:33.407Z,5.16
2023-01-15T22:22:02.595Z,5.19
2023-01-15T22:24:31.127Z,5.18
2023-01-15T22:26:57.859Z,5.18
2023-01-15T22:29:44.526Z,5.19
2023-01-15T22:32:13.244Z,5.19
2023-01-15T22:34:39.982Z,5.21
2023-01-15T22:37:06.468Z,5.22
2023-01-15T22:39:33.121Z,5.20
2023-01-15T22:42:18.200Z,5.21
2023-01-15T22:44:45.119Z,5.21
2023-01-15T22:47:12.221Z,5.23
2023-01-15T22:49:38.659Z,5.24
2023-01-15T22:52:05.192Z,5.24
2023-01-15T22:54:31.627Z,5.24
2023-01-15T22:56:58.035Z,5.23
2023-01-15T22:59:24.583Z,5.26
2023-01-15T23:01:51.231Z,5.26
2023-01-15T23:04:23.172Z,5.24
2023-01-15T23:06:51.643Z,5.23
2023-01-15T23:09:19.841Z,5.25
2023-01-15T23:11:46.357Z,5.26
2023-01-15T23:14:15.703Z,5.26
2023-01-15T23:16:42.958Z,5.26
2023-01-15T23:19:09.843Z,5.29
2023-01-15T23:21:36.304Z,5.30
2023-01-15T23:24:02.929Z,5.29
2023-01-15T23:26:32.303Z,5.26
2023-01-15T23:28:59.306Z,5.25
2023-01-15T23:31:27.738Z,5.24
2023-01-15T23:33:54.428Z,5.26
2023-01-15T23:36:21.257Z,5.28
2023-01-15T23:38:47.879Z,5.24
2023-01-15T23:41:17.158Z,5.25
2023-01-15T23:44:02.315Z,5.25
2023-01-15T23:46:32.985Z,5.24
2023-01-15T23:49:00.610Z,5.25
2023-01-15T23:51:27.191Z,5.26
2023-01-15T23:53:53.679Z,5.23
2023-01-15T23:56:20.109Z,5.20
2023-01-15T23:58:47.252Z,5.17
